Impacts TAF Board
For situational awareness. Not to be used for flight planning purposes.
IDs:

KMCB - McComb/Lewis Fld, MS, US

Issued at 0534 UTC 24 Jan 2019
Updated at 0628 UTC 24 Jan 2019
Potential Impact None Slight Moderate High
Time0553Z 24/07Z 24/08Z 24/09Z 24/10Z 24/11Z 24/12Z 24/13Z 24/14Z 24/15Z 24/16Z 24/17Z 24/18Z 24/19Z>>
Type OBS PRVL PRVL PRVL PRVL PRVL PRVL PRVL PRVL PRVL PRVL PRVL PRVL PRVL
VIS 10 >6 >6 >6 >6 >6 >6 >6 >6 >6 >6 >6 >6 >6
CIG 24 16 -- -- -- -- -- -- -- -- -- -- -- --
Cover OVC OVC SCT SCT SCT SCT SCT SCT SCT SCT SCT SCT SCT SCT
FltCat MVFR MVFR VFR VFR VFR VFR VFR VFR VFR VFR VFR VFR VFR VFR
WX -- -- -- -- -- -- -- -- -- -- -- -- -- --
WDir 320 300 320 320 320 320 320 320 320 320 320 320 320 320
WSpd 14 13 7 7 7 7 7 7 7 7 7 7 7 7
WGst 22 -- -- -- -- -- -- -- -- -- -- -- -- --
Raw TAF
KMCB 240534Z 2406/2506 30013KT P6SM BKN016 OVC025
  FM240800 32007KT P6SM SCT050
  FM250000 00000KT P6SM FEW250


Raw METAR
KMCB 240553Z AUTO 32014G22KT 10SM OVC024 02/M03 A3002 RMK AO2 SLP166 60001 T00171028 10044 20017 401940017 50015
KMCB 240526Z AUTO 30013KT 10SM BKN016 OVC025 02/M02 A3003 RMK AO2 T00171017
KMCB 240453Z AUTO 31015G20KT 10SM OVC014 02/M02 A3004 RMK AO2 SLP170 T00171017
KMCB 240353Z AUTO 30014G23KT 10SM OVC011 02/M01 A3002 RMK AO2 SLP167 T00171011
KMCB 240341Z AUTO 30013G22KT 10SM OVC010 02/M01 A3002 RMK AO2 PRESRR T00171011

METAR Board
Radar Display
Forecast Discussion
For situational awareness. Not to be used for flight planning purposes.